LEVX/VGO METAR and TAF weather

Enter ICAO airport designator
Station Type Date Time Source
LEVX METAR 2019/11/18 11:30 UTC NOAA

LEVX 181130Z VRB02KT 9999 FEW050 11/07 Q1020 NOSIG


Station Type Date Time Source
LEVX Decoded METAR 2019/11/18 11:30 UTC NOAA

Vigo / Peinador, Spain (LEVX) 42-13N 008-38W 255M
Nov 18, 2019 - 06:30 AM EST / 2019.11.18 1130 UTC
Wind: Variable at 2 MPH (2 KT):0
Visibility: greater than 7 mile(s):0
Sky conditions: mostly clear
Temperature: 51 F (11 C)
Dew Point: 44 F (7 C)
Relative Humidity: 76%
Pressure (altimeter): 30.12 in. Hg (1020 hPa)
ob: LEVX 181130Z VRB02KT 9999 FEW050 11/07 Q1020 NOSIG
cycle: 11

Station Type Date Time Source
LEVX TAF 2019/11/18 12:27 UTC NOAA

TAF LEVX 181100Z 1812/1912 VRB05KT 9999 FEW020 SCT040 TX11/1813Z TN04/1908Z
TEMPO 1821/1909 3000 BR BKN010
TEMPO 1821/1909 1500 BCFG BKN003 PROB40
TEMPO 1821/1909 0350 BCFG BKN001
TEMPO 1906/1912 3000 RA BR BKN010 PROB40
TEMPO 1906/1912 1500 RA BCFG BKN005 BKN010

Example: see airport list